createdAt,value
2022-12-05T00:02:15.977Z,16.70
2022-12-05T00:04:55.847Z,18.10
2022-12-05T00:07:25.732Z,18.80
2022-12-05T00:09:58.999Z,16.20
2022-12-05T00:12:29.564Z,15.70
2022-12-05T00:14:59.133Z,16.10
2022-12-05T00:17:40.566Z,17.40
2022-12-05T00:20:10.890Z,16.80
2022-12-05T00:22:43.716Z,17.60
2022-12-05T00:25:31.971Z,14.40
2022-12-05T00:28:04.928Z,15.90
2022-12-05T00:30:37.624Z,15.70
2022-12-05T00:33:14.391Z,16.80
2022-12-05T00:35:49.319Z,15.70
2022-12-05T00:42:33.223Z,15.20
2022-12-05T00:45:23.883Z,15.90
2022-12-05T00:47:58.999Z,15.50
2022-12-05T00:50:38.560Z,18.00
2022-12-05T00:53:08.549Z,17.10
2022-12-05T00:55:38.585Z,15.60
2022-12-05T00:58:08.507Z,15.20
2022-12-05T01:00:38.378Z,16.00
2022-12-05T01:03:09.043Z,17.50
2022-12-05T01:05:37.779Z,18.10
2022-12-05T01:08:08.778Z,16.90
2022-12-05T01:10:38.222Z,14.90
2022-12-05T01:13:08.397Z,15.60
2022-12-05T01:15:38.482Z,16.60
2022-12-05T01:18:10.502Z,17.30
2022-12-05T01:20:45.007Z,18.20
2022-12-05T01:23:15.877Z,16.70
2022-12-05T01:25:47.356Z,16.20
2022-12-05T01:28:20.117Z,16.30
2022-12-05T01:30:51.023Z,15.30
2022-12-05T01:33:21.236Z,17.30
2022-12-05T01:35:54.808Z,17.00
2022-12-05T01:38:26.796Z,18.40
2022-12-05T01:41:04.923Z,18.30
2022-12-05T01:43:38.840Z,16.80
2022-12-05T01:46:09.465Z,17.00
2022-12-05T01:48:40.028Z,16.70
2022-12-05T01:53:42.999Z,16.40
2022-12-05T01:56:13.915Z,16.60
2022-12-05T01:58:46.713Z,17.50
2022-12-05T02:01:20.989Z,15.30
2022-12-05T02:03:57.311Z,15.70
2022-12-05T02:06:33.589Z,16.30
2022-12-05T02:09:05.618Z,16.70
2022-12-05T02:11:44.024Z,15.30
2022-12-05T02:14:34.071Z,17.60
2022-12-05T02:17:37.546Z,14.70
2022-12-05T02:20:36.705Z,15.80
2022-12-05T02:23:54.354Z,14.00
2022-12-05T02:26:54.612Z,14.60
2022-12-05T02:30:01.836Z,14.80
2022-12-05T02:33:04.956Z,15.20
2022-12-05T02:36:30.967Z,14.60
2022-12-05T02:39:27.412Z,12.70
2022-12-05T02:42:27.155Z,13.00
2022-12-05T02:45:15.145Z,14.50
2022-12-05T02:47:56.330Z,14.30
2022-12-05T02:50:40.216Z,14.40
2022-12-05T02:53:19.565Z,14.80
2022-12-05T02:55:53.812Z,14.20
2022-12-05T02:58:36.737Z,14.00
2022-12-05T03:01:10.853Z,13.90
2022-12-05T03:03:45.756Z,13.60
2022-12-05T03:13:15.896Z,13.80
2022-12-05T03:15:55.721Z,12.30
2022-12-05T03:18:38.555Z,14.20
2022-12-05T03:21:35.219Z,13.80
2022-12-05T03:24:17.251Z,13.70
2022-12-05T03:27:12.208Z,14.00
2022-12-05T03:30:04.855Z,13.50
2022-12-05T03:33:13.284Z,12.60
2022-12-05T03:35:49.521Z,14.70
2022-12-05T03:38:53.412Z,13.40
2022-12-05T03:41:42.475Z,13.60
2022-12-05T03:44:42.482Z,13.20
2022-12-05T03:47:23.498Z,12.70
2022-12-05T03:50:04.951Z,13.50
2022-12-05T03:53:18.471Z,15.10
2022-12-05T03:55:59.126Z,12.90
2022-12-05T03:58:52.839Z,13.20
2022-12-05T04:01:34.765Z,13.80
2022-12-05T04:04:25.611Z,14.40
2022-12-05T04:06:58.754Z,13.90
2022-12-05T04:09:56.640Z,13.80
2022-12-05T04:12:29.863Z,12.50
2022-12-05T04:15:20.145Z,12.70
2022-12-05T04:17:59.025Z,14.50
2022-12-05T04:20:50.444Z,14.90
2022-12-05T04:23:21.641Z,14.60
2022-12-05T04:26:04.886Z,13.80
2022-12-05T04:28:37.626Z,13.30
2022-12-05T04:31:15.427Z,14.20
2022-12-05T04:34:01.391Z,14.90
2022-12-05T04:36:40.832Z,14.40
2022-12-05T04:39:26.563Z,12.80
2022-12-05T04:42:02.459Z,12.90
2022-12-05T04:44:37.152Z,12.80
2022-12-05T04:47:11.388Z,13.80
2022-12-05T04:49:54.552Z,14.20
2022-12-05T04:52:24.198Z,13.50
2022-12-05T04:55:02.244Z,13.80
2022-12-05T04:57:41.167Z,12.10
2022-12-05T05:00:11.339Z,12.10
2022-12-05T05:02:48.714Z,12.90
2022-12-05T05:05:20.159Z,14.10
2022-12-05T05:07:54.964Z,13.70
2022-12-05T05:10:45.769Z,14.70
2022-12-05T05:13:17.769Z,12.30
2022-12-05T05:15:47.871Z,12.70
2022-12-05T05:18:17.101Z,13.70
2022-12-05T05:20:45.956Z,14.50
2022-12-05T05:23:15.212Z,13.70
2022-12-05T05:25:44.733Z,14.50
2022-12-05T05:28:13.495Z,12.60
2022-12-05T05:30:44.621Z,12.00
2022-12-05T05:33:16.781Z,12.20
2022-12-05T05:35:46.256Z,13.80
2022-12-05T05:38:18.020Z,13.00
2022-12-05T05:40:48.361Z,13.20
2022-12-05T05:43:20.956Z,13.40
2022-12-05T05:48:23.208Z,12.60
2022-12-05T05:51:00.398Z,12.60
2022-12-05T05:53:38.834Z,13.10
2022-12-05T05:56:32.955Z,12.70
2022-12-05T05:59:05.836Z,15.40
2022-12-05T06:01:37.808Z,13.70
2022-12-05T06:04:08.581Z,12.70
2022-12-05T06:06:37.622Z,12.60
2022-12-05T06:09:10.800Z,12.80
2022-12-05T06:11:43.337Z,13.00
2022-12-05T06:14:24.999Z,14.40
2022-12-05T06:17:28.599Z,13.80
2022-12-05T06:20:36.306Z,14.10
2022-12-05T06:23:42.750Z,12.10
2022-12-05T06:26:52.014Z,12.30
2022-12-05T06:29:52.574Z,11.90
2022-12-05T06:32:48.477Z,13.30
2022-12-05T06:35:32.906Z,14.60
2022-12-05T06:38:13.212Z,13.10
2022-12-05T06:41:00.226Z,12.70
2022-12-05T06:43:40.324Z,12.30
2022-12-05T06:46:19.726Z,13.50
2022-12-05T06:49:03.814Z,14.80
2022-12-05T06:51:44.000Z,14.20
2022-12-05T06:54:25.347Z,13.90
2022-12-05T06:57:03.612Z,13.40
2022-12-05T06:59:43.260Z,13.50
2022-12-05T07:05:07.421Z,13.00
2022-12-05T07:07:54.995Z,14.10
2022-12-05T07:10:38.927Z,12.70
2022-12-05T07:13:24.075Z,15.30
2022-12-05T07:16:04.567Z,15.20
2022-12-05T07:18:42.661Z,13.30
2022-12-05T07:21:22.711Z,13.40
2022-12-05T07:24:07.941Z,13.40
2022-12-05T07:26:46.138Z,14.00
2022-12-05T07:29:25.631Z,14.00
2022-12-05T07:32:01.302Z,14.20
2022-12-05T07:34:47.768Z,14.50
2022-12-05T07:38:29.573Z,14.40
2022-12-05T07:41:39.879Z,13.50
2022-12-05T07:44:54.612Z,13.80
2022-12-05T07:48:13.236Z,14.80
2022-12-05T07:51:19.201Z,14.50
2022-12-05T07:54:19.431Z,16.70
2022-12-05T07:57:19.319Z,13.10
2022-12-05T08:00:21.617Z,13.40
2022-12-05T08:03:24.705Z,15.40
2022-12-05T08:06:27.922Z,14.80
2022-12-05T08:09:31.112Z,14.40
2022-12-05T08:12:31.708Z,16.00
2022-12-05T08:15:34.127Z,12.80
2022-12-05T08:18:27.795Z,13.80
2022-12-05T08:21:27.785Z,13.70
2022-12-05T08:24:28.538Z,18.60
2022-12-05T08:27:28.425Z,20.70
2022-12-05T08:30:29.207Z,13.80
2022-12-05T08:34:11.402Z,19.10
2022-12-05T08:38:23.790Z,13.40
2022-12-05T08:47:03.538Z,15.00
2022-12-05T08:49:21.796Z,15.00
2022-12-05T09:00:09.186Z,15.10
2022-12-05T09:14:43.090Z,15.30
2022-12-05T09:22:46.468Z,14.70
2022-12-05T09:28:17.920Z,13.80
2022-12-05T09:31:16.390Z,14.60
2022-12-05T09:34:26.754Z,13.30
2022-12-05T09:37:39.333Z,15.80
2022-12-05T09:45:11.684Z,14.50
2022-12-05T09:48:15.083Z,20.30
2022-12-05T09:50:51.728Z,15.30
2022-12-05T09:56:34.673Z,21.60
2022-12-05T09:59:35.641Z,16.50
2022-12-05T10:07:14.505Z,16.70
2022-12-05T10:11:06.589Z,22.00
2022-12-05T10:23:58.971Z,15.90
2022-12-05T10:26:43.261Z,16.30
2022-12-05T10:30:00.241Z,14.90
2022-12-05T10:32:59.654Z,15.10
2022-12-05T10:39:42.525Z,16.00
2022-12-05T10:42:47.803Z,16.80
2022-12-05T10:45:46.519Z,13.30
2022-12-05T10:48:38.431Z,16.30
2022-12-05T10:51:45.210Z,16.00
2022-12-05T10:54:52.873Z,16.20
2022-12-05T10:57:47.537Z,18.00
2022-12-05T11:01:01.462Z,15.90
2022-12-05T11:13:09.120Z,17.30
2022-12-05T11:16:48.888Z,18.80
2022-12-05T11:20:16.257Z,17.90
2022-12-05T11:23:39.645Z,14.90
2022-12-05T11:26:59.077Z,13.80
2022-12-05T11:30:11.365Z,17.40
2022-12-05T11:33:30.665Z,16.80
2022-12-05T11:36:49.981Z,16.00
2022-12-05T11:39:55.532Z,17.70
2022-12-05T11:43:17.413Z,16.70
2022-12-05T11:46:14.880Z,17.00
2022-12-05T11:49:00.952Z,18.00
2022-12-05T11:52:13.130Z,16.40
2022-12-05T11:55:07.098Z,15.30
2022-12-05T11:58:04.204Z,19.90
2022-12-05T12:00:55.424Z,16.70
2022-12-05T12:03:55.352Z,17.80
2022-12-05T12:07:17.933Z,17.70
2022-12-05T12:09:53.607Z,16.90
2022-12-05T12:12:58.783Z,16.20
2022-12-05T12:16:02.706Z,18.40
2022-12-05T12:19:42.940Z,19.20
2022-12-05T12:23:18.131Z,18.50
2022-12-05T12:26:13.025Z,18.10
2022-12-05T12:29:14.665Z,17.40
2022-12-05T12:32:16.308Z,19.00
2022-12-05T12:39:25.268Z,17.10
2022-12-05T12:43:00.018Z,18.20
2022-12-05T12:46:19.771Z,17.00
2022-12-05T12:49:53.784Z,18.20
2022-12-05T12:55:02.904Z,18.00
2022-12-05T12:57:25.663Z,18.30
2022-12-05T13:00:53.294Z,17.90
2022-12-05T13:09:51.393Z,17.40
2022-12-05T13:46:44.409Z,15.90
2022-12-05T13:54:05.533Z,19.40
2022-12-05T13:57:24.425Z,18.80
2022-12-05T14:15:27.957Z,21.10
2022-12-05T14:22:23.639Z,18.90
2022-12-05T14:28:09.509Z,20.60
2022-12-05T14:30:13.199Z,20.70
2022-12-05T14:34:44.403Z,19.60
2022-12-05T14:41:11.114Z,17.80
2022-12-05T14:44:56.951Z,21.70
2022-12-05T14:51:55.903Z,19.50
2022-12-05T14:55:45.437Z,19.60
2022-12-05T14:59:08.929Z,19.70
2022-12-05T15:13:24.478Z,21.10
2022-12-05T15:22:35.303Z,20.60
2022-12-05T15:24:18.162Z,20.30
2022-12-05T15:27:29.195Z,20.80
2022-12-05T15:34:50.816Z,20.00
2022-12-05T15:37:59.319Z,19.80
2022-12-05T15:40:41.507Z,20.40
2022-12-05T15:43:27.794Z,21.10
2022-12-05T15:46:15.654Z,22.00
2022-12-05T15:48:46.208Z,18.30
2022-12-05T15:51:25.345Z,19.90
2022-12-05T15:54:35.733Z,18.40
2022-12-05T15:57:23.514Z,21.00
2022-12-05T16:00:28.519Z,20.80
2022-12-05T16:20:36.987Z,22.50
2022-12-05T17:07:47.454Z,22.70
2022-12-05T17:18:44.063Z,24.10
2022-12-05T17:22:01.666Z,23.20
2022-12-05T18:06:34.333Z,21.60
2022-12-05T18:07:26.665Z,25.50
2022-12-05T18:09:16.813Z,21.70
2022-12-05T18:11:48.202Z,24.40
2022-12-05T18:14:38.834Z,23.10
2022-12-05T18:26:14.639Z,21.50
2022-12-05T18:28:59.965Z,20.90
2022-12-05T18:32:03.992Z,24.10
2022-12-05T18:34:41.032Z,24.10
2022-12-05T18:37:23.019Z,25.60
2022-12-05T18:42:40.048Z,22.40
2022-12-05T18:45:12.928Z,22.20
2022-12-05T18:47:43.806Z,22.10
2022-12-05T18:50:15.336Z,22.30
2022-12-05T18:52:44.460Z,22.10
2022-12-05T18:55:20.818Z,24.00
2022-12-05T18:58:02.941Z,23.40
2022-12-05T19:00:38.800Z,24.70
2022-12-05T19:03:21.696Z,22.90
2022-12-05T19:06:12.653Z,22.10
2022-12-05T19:08:57.728Z,22.00
2022-12-05T19:11:47.575Z,20.90
2022-12-05T19:14:20.690Z,22.10
2022-12-05T19:17:03.123Z,22.80
2022-12-05T19:20:10.194Z,23.60
2022-12-05T19:22:49.567Z,24.30
2022-12-05T19:25:26.153Z,22.70
2022-12-05T19:28:03.470Z,21.80
2022-12-05T19:30:40.246Z,22.00
2022-12-05T19:33:23.793Z,23.10
2022-12-05T19:36:24.221Z,23.10
2022-12-05T19:39:05.570Z,23.70
2022-12-05T19:41:50.077Z,23.30
2022-12-05T19:44:26.579Z,26.20
2022-12-05T19:47:06.200Z,21.90
2022-12-05T19:49:49.870Z,23.50
2022-12-05T19:52:28.387Z,22.30
2022-12-05T19:55:03.826Z,24.80
2022-12-05T19:57:44.889Z,24.00
2022-12-05T20:00:22.255Z,24.00
2022-12-05T20:02:57.652Z,24.40
2022-12-05T20:05:33.144Z,22.00
2022-12-05T20:08:17.899Z,22.10
2022-12-05T20:10:57.413Z,23.10
2022-12-05T20:16:32.568Z,25.70
2022-12-05T20:19:21.284Z,27.10
2022-12-05T20:22:35.001Z,24.20
2022-12-05T20:25:35.135Z,24.30
2022-12-05T20:28:48.148Z,23.80
2022-12-05T20:31:55.220Z,24.00
2022-12-05T20:35:01.077Z,24.70
2022-12-05T20:38:07.149Z,24.00
2022-12-05T20:41:15.802Z,22.90
2022-12-05T20:43:59.271Z,23.30
2022-12-05T20:46:39.367Z,25.50
2022-12-05T20:49:44.593Z,29.10
2022-12-05T20:53:00.382Z,23.90
2022-12-05T20:56:25.829Z,22.80
2022-12-05T20:59:30.313Z,26.40
2022-12-05T21:02:04.866Z,25.80
2022-12-05T21:04:41.287Z,26.70
2022-12-05T21:07:12.249Z,26.50
2022-12-05T21:09:43.648Z,24.80
2022-12-05T21:12:14.790Z,25.30
2022-12-05T21:14:50.197Z,27.80
2022-12-05T21:17:51.697Z,25.90
2022-12-05T21:20:35.351Z,26.90
2022-12-05T21:23:38.817Z,27.50
2022-12-05T21:26:43.269Z,23.90
2022-12-05T21:45:29.506Z,25.40
2022-12-05T21:48:43.536Z,26.10
2022-12-05T21:51:41.632Z,26.00
2022-12-05T21:54:19.942Z,26.90
2022-12-05T21:57:48.489Z,23.40
2022-12-05T22:00:32.964Z,26.10
2022-12-05T22:09:20.520Z,26.10
2022-12-05T22:12:04.395Z,28.20
2022-12-05T22:16:07.006Z,23.70
2022-12-05T22:22:06.711Z,24.80
2022-12-05T22:31:37.413Z,22.70
2022-12-05T22:34:43.230Z,24.50
2022-12-05T22:37:22.124Z,26.50
2022-12-05T22:39:52.965Z,25.70
2022-12-05T22:42:22.193Z,27.00
2022-12-05T22:44:57.778Z,26.30
2022-12-05T22:47:29.433Z,23.20
2022-12-05T22:49:58.629Z,24.40
2022-12-05T22:52:27.626Z,22.40
2022-12-05T22:54:58.052Z,26.30
2022-12-05T22:57:28.204Z,25.50
2022-12-05T22:59:58.502Z,26.60
2022-12-05T23:02:48.786Z,27.50
2022-12-05T23:05:21.191Z,24.80
2022-12-05T23:07:54.092Z,24.70
2022-12-05T23:10:24.480Z,24.50
2022-12-05T23:12:56.056Z,26.90
2022-12-05T23:15:28.887Z,25.80
2022-12-05T23:17:58.441Z,25.90
2022-12-05T23:20:29.622Z,27.80
2022-12-05T23:23:03.084Z,24.10
2022-12-05T23:25:33.902Z,26.60
2022-12-05T23:28:03.774Z,25.00
2022-12-05T23:30:33.348Z,25.60
2022-12-05T23:33:02.098Z,26.90
2022-12-05T23:35:32.398Z,27.30
2022-12-05T23:38:04.222Z,26.40
2022-12-05T23:40:38.346Z,25.50
2022-12-05T23:43:15.137Z,24.70
2022-12-05T23:45:51.152Z,27.10
2022-12-05T23:48:26.852Z,25.20
2022-12-05T23:51:04.765Z,25.40
2022-12-05T23:53:38.889Z,26.60
2022-12-05T23:56:09.136Z,24.10
2022-12-05T23:58:38.257Z,25.70
